sensor_id;sensor_type;location;lat;lon;timestamp;temperature;humidity
35531;DHT22;21637;53.352;-6.356;2023-06-04T00:02:17;11.60;99.90
35531;DHT22;21637;53.352;-6.356;2023-06-04T00:04:42;11.60;99.90
35531;DHT22;21637;53.352;-6.356;2023-06-04T00:07:08;11.60;99.90
35531;DHT22;21637;53.352;-6.356;2023-06-04T00:09:34;11.60;99.90
35531;DHT22;21637;53.352;-6.356;2023-06-04T00:12:00;11.60;99.90
35531;DHT22;21637;53.352;-6.356;2023-06-04T00:14:26;11.60;99.90
35531;DHT22;21637;53.352;-6.356;2023-06-04T00:16:51;11.50;99.90
35531;DHT22;21637;53.352;-6.356;2023-06-04T00:19:17;11.50;99.90
35531;DHT22;21637;53.352;-6.356;2023-06-04T00:21:43;11.50;99.90
35531;DHT22;21637;53.352;-6.356;2023-06-04T00:24:09;11.40;99.90
35531;DHT22;21637;53.352;-6.356;2023-06-04T00:26:34;11.40;99.90
35531;DHT22;21637;53.352;-6.356;2023-06-04T00:29:00;11.40;99.90
35531;DHT22;21637;53.352;-6.356;2023-06-04T00:31:26;11.40;99.90
35531;DHT22;21637;53.352;-6.356;2023-06-04T00:33:52;11.40;99.90
35531;DHT22;21637;53.352;-6.356;2023-06-04T00:36:18;11.40;99.90
35531;DHT22;21637;53.352;-6.356;2023-06-04T00:38:43;11.30;99.90
35531;DHT22;21637;53.352;-6.356;2023-06-04T00:41:09;11.30;99.90
35531;DHT22;21637;53.352;-6.356;2023-06-04T00:43:35;11.20;99.90
35531;DHT22;21637;53.352;-6.356;2023-06-04T00:46:01;11.20;99.90
35531;DHT22;21637;53.352;-6.356;2023-06-04T00:48:29;11.20;99.90
35531;DHT22;21637;53.352;-6.356;2023-06-04T00:50:56;11.10;99.90
35531;DHT22;21637;53.352;-6.356;2023-06-04T00:53:24;11.10;99.90
35531;DHT22;21637;53.352;-6.356;2023-06-04T00:55:50;11.10;99.90
35531;DHT22;21637;53.352;-6.356;2023-06-04T00:58:17;11.00;99.90
35531;DHT22;21637;53.352;-6.356;2023-06-04T01:00:46;11.00;99.90
35531;DHT22;21637;53.352;-6.356;2023-06-04T01:03:18;10.90;99.90
35531;DHT22;21637;53.352;-6.356;2023-06-04T01:05:55;10.90;99.90
35531;DHT22;21637;53.352;-6.356;2023-06-04T01:08:23;10.90;99.90
35531;DHT22;21637;53.352;-6.356;2023-06-04T01:10:53;10.90;99.90
35531;DHT22;21637;53.352;-6.356;2023-06-04T01:13:19;10.90;99.90
35531;DHT22;21637;53.352;-6.356;2023-06-04T01:15:45;10.90;99.90
35531;DHT22;21637;53.352;-6.356;2023-06-04T01:18:23;10.90;99.90
35531;DHT22;21637;53.352;-6.356;2023-06-04T01:21:02;10.80;99.90
35531;DHT22;21637;53.352;-6.356;2023-06-04T01:23:49;10.70;99.90
35531;DHT22;21637;53.352;-6.356;2023-06-04T01:26:28;10.70;99.90
35531;DHT22;21637;53.352;-6.356;2023-06-04T01:28:55;10.70;99.90
35531;DHT22;21637;53.352;-6.356;2023-06-04T01:31:22;10.70;99.90
35531;DHT22;21637;53.352;-6.356;2023-06-04T01:33:58;10.70;99.90
35531;DHT22;21637;53.352;-6.356;2023-06-04T01:36:24;10.70;99.90
35531;DHT22;21637;53.352;-6.356;2023-06-04T01:38:50;10.60;99.90
35531;DHT22;21637;53.352;-6.356;2023-06-04T01:41:16;10.60;99.90
35531;DHT22;21637;53.352;-6.356;2023-06-04T01:43:42;10.70;99.90
35531;DHT22;21637;53.352;-6.356;2023-06-04T01:46:07;10.60;99.90
35531;DHT22;21637;53.352;-6.356;2023-06-04T01:48:33;10.50;99.90
35531;DHT22;21637;53.352;-6.356;2023-06-04T01:50:59;10.60;99.90
35531;DHT22;21637;53.352;-6.356;2023-06-04T01:53:25;10.60;99.90
35531;DHT22;21637;53.352;-6.356;2023-06-04T01:55:51;10.60;99.90
35531;DHT22;21637;53.352;-6.356;2023-06-04T01:58:18;10.50;99.90
35531;DHT22;21637;53.352;-6.356;2023-06-04T02:00:49;10.50;99.90
35531;DHT22;21637;53.352;-6.356;2023-06-04T02:03:15;10.40;99.90
35531;DHT22;21637;53.352;-6.356;2023-06-04T02:05:41;10.40;99.90
35531;DHT22;21637;53.352;-6.356;2023-06-04T02:08:10;10.50;99.90
35531;DHT22;21637;53.352;-6.356;2023-06-04T02:10:36;10.40;99.90
35531;DHT22;21637;53.352;-6.356;2023-06-04T02:13:02;10.40;99.90
35531;DHT22;21637;53.352;-6.356;2023-06-04T02:15:29;10.40;99.90
35531;DHT22;21637;53.352;-6.356;2023-06-04T02:18:10;10.40;99.90
35531;DHT22;21637;53.352;-6.356;2023-06-04T02:20:42;10.40;99.90
35531;DHT22;21637;53.352;-6.356;2023-06-04T02:23:08;10.30;99.90
35531;DHT22;21637;53.352;-6.356;2023-06-04T02:25:33;10.30;99.90
35531;DHT22;21637;53.352;-6.356;2023-06-04T02:27:59;10.30;99.90
35531;DHT22;21637;53.352;-6.356;2023-06-04T02:30:25;10.30;99.90
35531;DHT22;21637;53.352;-6.356;2023-06-04T02:32:51;10.20;99.90
35531;DHT22;21637;53.352;-6.356;2023-06-04T02:35:16;10.20;99.90
35531;DHT22;21637;53.352;-6.356;2023-06-04T02:37:43;10.10;99.90
35531;DHT22;21637;53.352;-6.356;2023-06-04T02:40:10;10.10;99.90
35531;DHT22;21637;53.352;-6.356;2023-06-04T02:42:36;10.10;99.90
35531;DHT22;21637;53.352;-6.356;2023-06-04T02:45:01;10.10;99.90
35531;DHT22;21637;53.352;-6.356;2023-06-04T02:47:27;10.10;99.90
35531;DHT22;21637;53.352;-6.356;2023-06-04T02:49:53;10.10;99.90
35531;DHT22;21637;53.352;-6.356;2023-06-04T02:52:19;10.00;99.90
35531;DHT22;21637;53.352;-6.356;2023-06-04T02:54:48;10.00;99.90
35531;DHT22;21637;53.352;-6.356;2023-06-04T02:57:13;10.00;99.90
35531;DHT22;21637;53.352;-6.356;2023-06-04T02:59:39;10.10;99.90
35531;DHT22;21637;53.352;-6.356;2023-06-04T03:02:05;10.10;99.90
35531;DHT22;21637;53.352;-6.356;2023-06-04T03:04:31;10.10;99.90
35531;DHT22;21637;53.352;-6.356;2023-06-04T03:07:01;10.00;99.90
35531;DHT22;21637;53.352;-6.356;2023-06-04T03:09:28;10.00;99.90
35531;DHT22;21637;53.352;-6.356;2023-06-04T03:11:56;9.90;99.90
35531;DHT22;21637;53.352;-6.356;2023-06-04T03:14:22;9.90;99.90
35531;DHT22;21637;53.352;-6.356;2023-06-04T03:16:49;9.90;99.90
35531;DHT22;21637;53.352;-6.356;2023-06-04T03:19:16;9.90;99.90
35531;DHT22;21637;53.352;-6.356;2023-06-04T03:21:42;9.90;99.90
35531;DHT22;21637;53.352;-6.356;2023-06-04T03:24:08;9.80;99.90
35531;DHT22;21637;53.352;-6.356;2023-06-04T03:26:34;9.80;99.90
35531;DHT22;21637;53.352;-6.356;2023-06-04T03:28:59;9.90;99.90
35531;DHT22;21637;53.352;-6.356;2023-06-04T03:31:25;9.90;99.90
35531;DHT22;21637;53.352;-6.356;2023-06-04T03:33:52;9.80;99.90
35531;DHT22;21637;53.352;-6.356;2023-06-04T03:36:18;9.80;99.90
35531;DHT22;21637;53.352;-6.356;2023-06-04T03:38:45;9.90;99.90
35531;DHT22;21637;53.352;-6.356;2023-06-04T03:41:12;9.80;99.90
35531;DHT22;21637;53.352;-6.356;2023-06-04T03:43:37;9.80;99.90
35531;DHT22;21637;53.352;-6.356;2023-06-04T03:46:03;9.70;99.90
35531;DHT22;21637;53.352;-6.356;2023-06-04T03:48:29;9.70;99.90
35531;DHT22;21637;53.352;-6.356;2023-06-04T03:50:54;9.60;99.90
35531;DHT22;21637;53.352;-6.356;2023-06-04T03:53:20;9.70;99.90
35531;DHT22;21637;53.352;-6.356;2023-06-04T03:55:46;9.60;99.90
35531;DHT22;21637;53.352;-6.356;2023-06-04T03:58:11;9.60;99.90
35531;DHT22;21637;53.352;-6.356;2023-06-04T04:00:37;9.60;99.90
35531;DHT22;21637;53.352;-6.356;2023-06-04T04:03:03;9.60;99.90
35531;DHT22;21637;53.352;-6.356;2023-06-04T04:05:29;9.60;99.90
35531;DHT22;21637;53.352;-6.356;2023-06-04T04:07:54;9.60;99.90
35531;DHT22;21637;53.352;-6.356;2023-06-04T04:10:20;9.60;99.90
35531;DHT22;21637;53.352;-6.356;2023-06-04T04:12:46;9.60;99.90
35531;DHT22;21637;53.352;-6.356;2023-06-04T04:15:12;9.60;99.90
35531;DHT22;21637;53.352;-6.356;2023-06-04T04:17:38;9.50;99.90
35531;DHT22;21637;53.352;-6.356;2023-06-04T04:20:04;9.60;99.90
35531;DHT22;21637;53.352;-6.356;2023-06-04T04:22:31;9.60;99.90
35531;DHT22;21637;53.352;-6.356;2023-06-04T04:24:56;9.60;99.90
35531;DHT22;21637;53.352;-6.356;2023-06-04T04:27:22;9.50;99.90
35531;DHT22;21637;53.352;-6.356;2023-06-04T04:29:48;9.60;99.90
35531;DHT22;21637;53.352;-6.356;2023-06-04T04:32:14;9.60;99.90
35531;DHT22;21637;53.352;-6.356;2023-06-04T04:34:51;9.60;99.90
35531;DHT22;21637;53.352;-6.356;2023-06-04T04:37:17;9.60;99.90
35531;DHT22;21637;53.352;-6.356;2023-06-04T04:39:46;9.60;99.90
35531;DHT22;21637;53.352;-6.356;2023-06-04T04:42:12;9.60;99.90
35531;DHT22;21637;53.352;-6.356;2023-06-04T04:44:38;9.70;99.90
35531;DHT22;21637;53.352;-6.356;2023-06-04T04:47:03;9.70;99.90
35531;DHT22;21637;53.352;-6.356;2023-06-04T04:49:29;9.80;99.90
35531;DHT22;21637;53.352;-6.356;2023-06-04T04:51:55;9.80;99.90
35531;DHT22;21637;53.352;-6.356;2023-06-04T04:54:21;9.90;99.90
35531;DHT22;21637;53.352;-6.356;2023-06-04T04:56:46;10.00;99.90
35531;DHT22;21637;53.352;-6.356;2023-06-04T04:59:12;10.10;99.90
35531;DHT22;21637;53.352;-6.356;2023-06-04T05:01:38;10.20;99.90
35531;DHT22;21637;53.352;-6.356;2023-06-04T05:04:03;10.40;99.90
35531;DHT22;21637;53.352;-6.356;2023-06-04T05:06:29;10.60;99.90
35531;DHT22;21637;53.352;-6.356;2023-06-04T05:08:55;10.70;99.90
35531;DHT22;21637;53.352;-6.356;2023-06-04T05:11:21;10.80;99.90
35531;DHT22;21637;53.352;-6.356;2023-06-04T05:13:46;11.00;99.90
35531;DHT22;21637;53.352;-6.356;2023-06-04T05:16:12;11.10;99.90
35531;DHT22;21637;53.352;-6.356;2023-06-04T05:18:38;11.20;99.90
35531;DHT22;21637;53.352;-6.356;2023-06-04T05:21:10;11.30;99.90
35531;DHT22;21637;53.352;-6.356;2023-06-04T05:23:38;11.40;99.90
35531;DHT22;21637;53.352;-6.356;2023-06-04T05:26:04;11.60;99.90
35531;DHT22;21637;53.352;-6.356;2023-06-04T05:28:31;11.70;99.90
35531;DHT22;21637;53.352;-6.356;2023-06-04T05:30:59;11.80;99.90
35531;DHT22;21637;53.352;-6.356;2023-06-04T05:33:29;11.90;99.90
35531;DHT22;21637;53.352;-6.356;2023-06-04T05:35:56;12.00;99.90
35531;DHT22;21637;53.352;-6.356;2023-06-04T05:38:24;12.10;99.90
35531;DHT22;21637;53.352;-6.356;2023-06-04T05:40:56;12.20;99.90
35531;DHT22;21637;53.352;-6.356;2023-06-04T05:43:22;12.30;99.90
35531;DHT22;21637;53.352;-6.356;2023-06-04T05:45:48;12.40;99.90
35531;DHT22;21637;53.352;-6.356;2023-06-04T05:48:14;12.60;99.90
35531;DHT22;21637;53.352;-6.356;2023-06-04T05:50:40;12.70;99.90
35531;DHT22;21637;53.352;-6.356;2023-06-04T05:53:06;12.80;99.90
35531;DHT22;21637;53.352;-6.356;2023-06-04T05:55:32;12.90;99.90
35531;DHT22;21637;53.352;-6.356;2023-06-04T05:57:58;13.00;99.90
35531;DHT22;21637;53.352;-6.356;2023-06-04T06:00:23;13.20;99.90
35531;DHT22;21637;53.352;-6.356;2023-06-04T06:02:50;13.30;99.90
35531;DHT22;21637;53.352;-6.356;2023-06-04T06:05:18;13.50;99.90
35531;DHT22;21637;53.352;-6.356;2023-06-04T06:07:45;13.70;99.90
35531;DHT22;21637;53.352;-6.356;2023-06-04T06:10:11;13.80;99.90
35531;DHT22;21637;53.352;-6.356;2023-06-04T06:12:37;13.90;99.90
35531;DHT22;21637;53.352;-6.356;2023-06-04T06:15:03;14.20;99.90
35531;DHT22;21637;53.352;-6.356;2023-06-04T06:17:29;14.30;99.90
35531;DHT22;21637;53.352;-6.356;2023-06-04T06:19:55;14.40;99.90
35531;DHT22;21637;53.352;-6.356;2023-06-04T06:22:22;14.60;99.90
35531;DHT22;21637;53.352;-6.356;2023-06-04T06:24:47;14.80;99.90
35531;DHT22;21637;53.352;-6.356;2023-06-04T06:27:16;14.90;99.90
35531;DHT22;21637;53.352;-6.356;2023-06-04T06:29:43;15.10;99.90
35531;DHT22;21637;53.352;-6.356;2023-06-04T06:32:10;15.20;99.90
35531;DHT22;21637;53.352;-6.356;2023-06-04T06:34:36;15.40;99.90
35531;DHT22;21637;53.352;-6.356;2023-06-04T06:37:02;15.60;99.90
35531;DHT22;21637;53.352;-6.356;2023-06-04T06:39:28;15.80;99.90
35531;DHT22;21637;53.352;-6.356;2023-06-04T06:41:54;16.00;99.90
35531;DHT22;21637;53.352;-6.356;2023-06-04T06:44:20;16.00;99.90
35531;DHT22;21637;53.352;-6.356;2023-06-04T06:46:46;16.10;99.90
35531;DHT22;21637;53.352;-6.356;2023-06-04T06:49:14;16.20;99.90
35531;DHT22;21637;53.352;-6.356;2023-06-04T06:51:40;16.30;99.90
35531;DHT22;21637;53.352;-6.356;2023-06-04T06:54:08;16.40;99.90
35531;DHT22;21637;53.352;-6.356;2023-06-04T06:56:33;16.60;99.90
35531;DHT22;21637;53.352;-6.356;2023-06-04T06:59:00;16.70;99.90
35531;DHT22;21637;53.352;-6.356;2023-06-04T07:01:26;16.90;99.90
35531;DHT22;21637;53.352;-6.356;2023-06-04T07:03:52;17.00;99.90
35531;DHT22;21637;53.352;-6.356;2023-06-04T07:06:17;17.10;99.90
35531;DHT22;21637;53.352;-6.356;2023-06-04T07:08:43;17.10;99.90
35531;DHT22;21637;53.352;-6.356;2023-06-04T07:11:09;17.10;99.90
35531;DHT22;21637;53.352;-6.356;2023-06-04T07:13:38;17.20;99.90
35531;DHT22;21637;53.352;-6.356;2023-06-04T07:16:04;17.30;99.90
35531;DHT22;21637;53.352;-6.356;2023-06-04T07:18:30;17.30;99.90
35531;DHT22;21637;53.352;-6.356;2023-06-04T07:20:56;17.40;99.90
35531;DHT22;21637;53.352;-6.356;2023-06-04T07:23:22;17.40;99.90
35531;DHT22;21637;53.352;-6.356;2023-06-04T07:25:48;17.40;99.90
35531;DHT22;21637;53.352;-6.356;2023-06-04T07:28:13;17.20;99.90
35531;DHT22;21637;53.352;-6.356;2023-06-04T07:30:39;17.40;99.90
35531;DHT22;21637;53.352;-6.356;2023-06-04T07:33:05;17.60;99.90
35531;DHT22;21637;53.352;-6.356;2023-06-04T07:35:31;17.70;99.90
35531;DHT22;21637;53.352;-6.356;2023-06-04T07:37:57;17.80;99.90
35531;DHT22;21637;53.352;-6.356;2023-06-04T07:40:23;17.90;99.90
35531;DHT22;21637;53.352;-6.356;2023-06-04T07:42:49;18.00;99.90
35531;DHT22;21637;53.352;-6.356;2023-06-04T07:45:15;18.10;99.90
35531;DHT22;21637;53.352;-6.356;2023-06-04T07:47:41;18.20;99.90
35531;DHT22;21637;53.352;-6.356;2023-06-04T07:50:08;18.30;99.90
35531;DHT22;21637;53.352;-6.356;2023-06-04T07:52:33;18.30;99.90
35531;DHT22;21637;53.352;-6.356;2023-06-04T07:54:59;18.40;99.90
35531;DHT22;21637;53.352;-6.356;2023-06-04T07:57:25;18.40;99.90
35531;DHT22;21637;53.352;-6.356;2023-06-04T07:59:51;18.50;99.90
35531;DHT22;21637;53.352;-6.356;2023-06-04T08:02:18;18.50;99.90
35531;DHT22;21637;53.352;-6.356;2023-06-04T08:04:44;18.50;99.90
35531;DHT22;21637;53.352;-6.356;2023-06-04T08:07:11;18.50;99.90
35531;DHT22;21637;53.352;-6.356;2023-06-04T08:09:36;18.60;99.90
35531;DHT22;21637;53.352;-6.356;2023-06-04T08:12:02;18.70;99.90
35531;DHT22;21637;53.352;-6.356;2023-06-04T08:14:28;18.70;99.90
35531;DHT22;21637;53.352;-6.356;2023-06-04T08:16:54;18.80;99.90
35531;DHT22;21637;53.352;-6.356;2023-06-04T08:19:20;18.80;99.90
35531;DHT22;21637;53.352;-6.356;2023-06-04T08:21:46;18.90;99.90
35531;DHT22;21637;53.352;-6.356;2023-06-04T08:24:13;19.00;99.90
35531;DHT22;21637;53.352;-6.356;2023-06-04T08:26:38;18.90;99.90
35531;DHT22;21637;53.352;-6.356;2023-06-04T08:29:05;19.00;99.90
35531;DHT22;21637;53.352;-6.356;2023-06-04T08:31:31;19.00;99.90
35531;DHT22;21637;53.352;-6.356;2023-06-04T08:33:57;19.00;99.90
35531;DHT22;21637;53.352;-6.356;2023-06-04T08:36:23;19.10;99.90
35531;DHT22;21637;53.352;-6.356;2023-06-04T08:38:49;19.10;99.90
35531;DHT22;21637;53.352;-6.356;2023-06-04T08:43:55;19.30;99.90
35531;DHT22;21637;53.352;-6.356;2023-06-04T08:46:22;19.30;99.90
35531;DHT22;21637;53.352;-6.356;2023-06-04T08:48:49;19.20;99.90
35531;DHT22;21637;53.352;-6.356;2023-06-04T08:51:16;19.10;99.90
35531;DHT22;21637;53.352;-6.356;2023-06-04T08:53:42;19.20;99.90
35531;DHT22;21637;53.352;-6.356;2023-06-04T08:56:08;19.20;99.90
35531;DHT22;21637;53.352;-6.356;2023-06-04T08:58:36;19.20;99.90
35531;DHT22;21637;53.352;-6.356;2023-06-04T09:01:02;19.30;99.90
35531;DHT22;21637;53.352;-6.356;2023-06-04T09:03:29;19.40;99.90
35531;DHT22;21637;53.352;-6.356;2023-06-04T09:05:58;19.40;99.90
35531;DHT22;21637;53.352;-6.356;2023-06-04T09:08:25;19.50;99.90
35531;DHT22;21637;53.352;-6.356;2023-06-04T09:10:54;19.50;99.90
35531;DHT22;21637;53.352;-6.356;2023-06-04T09:13:23;19.70;99.90
35531;DHT22;21637;53.352;-6.356;2023-06-04T09:16:04;19.80;99.90
35531;DHT22;21637;53.352;-6.356;2023-06-04T09:18:33;19.90;99.90
35531;DHT22;21637;53.352;-6.356;2023-06-04T09:21:06;19.90;99.90
35531;DHT22;21637;53.352;-6.356;2023-06-04T09:23:36;19.90;99.90
35531;DHT22;21637;53.352;-6.356;2023-06-04T09:26:09;19.90;99.90
35531;DHT22;21637;53.352;-6.356;2023-06-04T09:28:35;19.70;99.90
35531;DHT22;21637;53.352;-6.356;2023-06-04T09:31:02;19.70;99.90
35531;DHT22;21637;53.352;-6.356;2023-06-04T09:33:28;19.60;99.90
35531;DHT22;21637;53.352;-6.356;2023-06-04T09:35:57;19.70;99.90
35531;DHT22;21637;53.352;-6.356;2023-06-04T09:38:23;19.80;99.90
35531;DHT22;21637;53.352;-6.356;2023-06-04T09:40:49;19.80;99.90
35531;DHT22;21637;53.352;-6.356;2023-06-04T09:43:22;19.90;99.90
35531;DHT22;21637;53.352;-6.356;2023-06-04T09:45:51;20.10;99.90
35531;DHT22;21637;53.352;-6.356;2023-06-04T09:48:21;20.20;99.90
35531;DHT22;21637;53.352;-6.356;2023-06-04T09:50:47;20.30;99.90
35531;DHT22;21637;53.352;-6.356;2023-06-04T09:53:19;20.20;99.90
35531;DHT22;21637;53.352;-6.356;2023-06-04T09:55:58;20.20;99.90
35531;DHT22;21637;53.352;-6.356;2023-06-04T09:58:27;20.30;99.90
35531;DHT22;21637;53.352;-6.356;2023-06-04T10:01:03;20.20;99.90
35531;DHT22;21637;53.352;-6.356;2023-06-04T10:03:33;20.00;99.90
35531;DHT22;21637;53.352;-6.356;2023-06-04T10:06:05;19.90;99.90
35531;DHT22;21637;53.352;-6.356;2023-06-04T10:08:32;19.80;99.90
35531;DHT22;21637;53.352;-6.356;2023-06-04T10:11:02;19.70;99.90
35531;DHT22;21637;53.352;-6.356;2023-06-04T10:13:31;19.80;99.90
35531;DHT22;21637;53.352;-6.356;2023-06-04T10:15:57;19.50;99.90
35531;DHT22;21637;53.352;-6.356;2023-06-04T10:18:24;19.20;99.90
35531;DHT22;21637;53.352;-6.356;2023-06-04T10:20:53;19.20;99.90
35531;DHT22;21637;53.352;-6.356;2023-06-04T10:23:20;19.30;99.90
35531;DHT22;21637;53.352;-6.356;2023-06-04T10:25:49;19.50;99.90
35531;DHT22;21637;53.352;-6.356;2023-06-04T10:28:15;19.60;99.90
35531;DHT22;21637;53.352;-6.356;2023-06-04T10:30:43;19.50;99.90
35531;DHT22;21637;53.352;-6.356;2023-06-04T10:33:09;19.60;99.90
35531;DHT22;21637;53.352;-6.356;2023-06-04T10:35:36;19.70;99.90
35531;DHT22;21637;53.352;-6.356;2023-06-04T10:38:09;19.90;99.90
35531;DHT22;21637;53.352;-6.356;2023-06-04T10:40:36;20.00;99.90
35531;DHT22;21637;53.352;-6.356;2023-06-04T10:43:12;20.10;99.90
35531;DHT22;21637;53.352;-6.356;2023-06-04T10:45:40;20.10;99.90
35531;DHT22;21637;53.352;-6.356;2023-06-04T10:48:10;20.20;99.90
35531;DHT22;21637;53.352;-6.356;2023-06-04T10:50:48;20.30;99.90
35531;DHT22;21637;53.352;-6.356;2023-06-04T10:53:14;20.10;99.90
35531;DHT22;21637;53.352;-6.356;2023-06-04T10:55:44;19.90;99.90
35531;DHT22;21637;53.352;-6.356;2023-06-04T10:58:10;19.90;99.90
35531;DHT22;21637;53.352;-6.356;2023-06-04T11:00:40;19.90;99.90
35531;DHT22;21637;53.352;-6.356;2023-06-04T11:03:08;19.80;99.90
35531;DHT22;21637;53.352;-6.356;2023-06-04T11:05:39;19.70;99.90
35531;DHT22;21637;53.352;-6.356;2023-06-04T11:08:06;19.80;99.90
35531;DHT22;21637;53.352;-6.356;2023-06-04T11:10:34;19.80;99.90
35531;DHT22;21637;53.352;-6.356;2023-06-04T11:13:01;19.90;99.90
35531;DHT22;21637;53.352;-6.356;2023-06-04T11:15:27;19.80;99.90
35531;DHT22;21637;53.352;-6.356;2023-06-04T11:18:02;19.60;99.90
35531;DHT22;21637;53.352;-6.356;2023-06-04T11:20:28;19.50;99.90
35531;DHT22;21637;53.352;-6.356;2023-06-04T11:22:58;19.60;99.90
35531;DHT22;21637;53.352;-6.356;2023-06-04T11:25:25;19.40;99.90
35531;DHT22;21637;53.352;-6.356;2023-06-04T11:27:53;19.40;99.90
35531;DHT22;21637;53.352;-6.356;2023-06-04T11:30:19;19.50;99.90
35531;DHT22;21637;53.352;-6.356;2023-06-04T11:32:45;19.50;99.90
35531;DHT22;21637;53.352;-6.356;2023-06-04T11:35:11;19.40;99.90
35531;DHT22;21637;53.352;-6.356;2023-06-04T11:37:37;19.30;99.90
35531;DHT22;21637;53.352;-6.356;2023-06-04T11:40:24;19.30;99.90
35531;DHT22;21637;53.352;-6.356;2023-06-04T11:42:52;19.30;99.90
35531;DHT22;21637;53.352;-6.356;2023-06-04T11:45:19;19.50;99.90
35531;DHT22;21637;53.352;-6.356;2023-06-04T11:47:50;19.60;99.90
35531;DHT22;21637;53.352;-6.356;2023-06-04T11:50:16;19.60;99.90
35531;DHT22;21637;53.352;-6.356;2023-06-04T11:52:43;19.70;99.90
35531;DHT22;21637;53.352;-6.356;2023-06-04T11:55:12;19.70;99.90
35531;DHT22;21637;53.352;-6.356;2023-06-04T11:57:39;19.80;99.90
35531;DHT22;21637;53.352;-6.356;2023-06-04T12:00:08;19.80;99.90
35531;DHT22;21637;53.352;-6.356;2023-06-04T12:02:38;19.50;99.90
35531;DHT22;21637;53.352;-6.356;2023-06-04T12:05:14;19.60;99.90
35531;DHT22;21637;53.352;-6.356;2023-06-04T12:07:40;19.50;99.90
35531;DHT22;21637;53.352;-6.356;2023-06-04T12:10:07;19.50;99.90
35531;DHT22;21637;53.352;-6.356;2023-06-04T12:12:42;19.50;99.90
35531;DHT22;21637;53.352;-6.356;2023-06-04T12:15:09;19.50;99.90
35531;DHT22;21637;53.352;-6.356;2023-06-04T12:17:48;19.40;99.90
35531;DHT22;21637;53.352;-6.356;2023-06-04T12:20:14;19.40;99.90
35531;DHT22;21637;53.352;-6.356;2023-06-04T12:22:47;19.30;99.90
35531;DHT22;21637;53.352;-6.356;2023-06-04T12:25:27;19.20;99.90
35531;DHT22;21637;53.352;-6.356;2023-06-04T12:27:53;19.20;99.90
35531;DHT22;21637;53.352;-6.356;2023-06-04T12:30:19;19.20;99.90
35531;DHT22;21637;53.352;-6.356;2023-06-04T12:32:45;19.30;99.90
35531;DHT22;21637;53.352;-6.356;2023-06-04T12:35:11;19.40;99.90
35531;DHT22;21637;53.352;-6.356;2023-06-04T12:37:37;19.40;99.90
35531;DHT22;21637;53.352;-6.356;2023-06-04T12:40:03;19.30;99.90
35531;DHT22;21637;53.352;-6.356;2023-06-04T12:42:32;19.30;99.90
35531;DHT22;21637;53.352;-6.356;2023-06-04T12:44:58;19.30;99.90
35531;DHT22;21637;53.352;-6.356;2023-06-04T12:47:24;19.20;99.90
35531;DHT22;21637;53.352;-6.356;2023-06-04T12:49:49;19.10;99.90
35531;DHT22;21637;53.352;-6.356;2023-06-04T12:52:16;19.10;99.90
35531;DHT22;21637;53.352;-6.356;2023-06-04T12:54:43;18.90;99.90
35531;DHT22;21637;53.352;-6.356;2023-06-04T12:57:08;19.00;99.90
35531;DHT22;21637;53.352;-6.356;2023-06-04T12:59:34;19.10;99.90
35531;DHT22;21637;53.352;-6.356;2023-06-04T13:02:00;19.10;99.90
35531;DHT22;21637;53.352;-6.356;2023-06-04T13:04:26;19.30;99.90
35531;DHT22;21637;53.352;-6.356;2023-06-04T13:06:52;19.50;99.90
35531;DHT22;21637;53.352;-6.356;2023-06-04T13:09:21;19.50;99.90
35531;DHT22;21637;53.352;-6.356;2023-06-04T13:11:48;19.50;99.90
35531;DHT22;21637;53.352;-6.356;2023-06-04T13:14:14;19.20;99.90
35531;DHT22;21637;53.352;-6.356;2023-06-04T13:16:40;19.20;99.90
35531;DHT22;21637;53.352;-6.356;2023-06-04T13:19:07;19.30;99.90
35531;DHT22;21637;53.352;-6.356;2023-06-04T13:21:33;19.30;99.90
35531;DHT22;21637;53.352;-6.356;2023-06-04T13:23:59;19.30;99.90
35531;DHT22;21637;53.352;-6.356;2023-06-04T13:26:25;19.40;99.90
35531;DHT22;21637;53.352;-6.356;2023-06-04T13:28:51;19.50;99.90
35531;DHT22;21637;53.352;-6.356;2023-06-04T13:31:17;19.60;99.90
35531;DHT22;21637;53.352;-6.356;2023-06-04T13:33:42;19.70;99.90
35531;DHT22;21637;53.352;-6.356;2023-06-04T13:36:08;19.80;99.90
35531;DHT22;21637;53.352;-6.356;2023-06-04T13:38:34;19.60;99.90
35531;DHT22;21637;53.352;-6.356;2023-06-04T13:41:00;19.50;99.90
35531;DHT22;21637;53.352;-6.356;2023-06-04T13:43:26;19.40;99.90
35531;DHT22;21637;53.352;-6.356;2023-06-04T13:45:52;19.20;99.90
35531;DHT22;21637;53.352;-6.356;2023-06-04T13:48:18;19.10;99.90
35531;DHT22;21637;53.352;-6.356;2023-06-04T13:50:44;19.20;99.90
35531;DHT22;21637;53.352;-6.356;2023-06-04T13:53:10;19.30;99.90
35531;DHT22;21637;53.352;-6.356;2023-06-04T13:55:38;19.30;99.90
35531;DHT22;21637;53.352;-6.356;2023-06-04T13:58:04;19.30;99.90
35531;DHT22;21637;53.352;-6.356;2023-06-04T14:00:30;19.40;99.90
35531;DHT22;21637;53.352;-6.356;2023-06-04T14:02:57;19.40;99.90
35531;DHT22;21637;53.352;-6.356;2023-06-04T14:05:24;19.40;99.90
35531;DHT22;21637;53.352;-6.356;2023-06-04T14:07:53;19.50;99.90
35531;DHT22;21637;53.352;-6.356;2023-06-04T14:10:18;19.60;99.90
35531;DHT22;21637;53.352;-6.356;2023-06-04T14:12:44;19.60;99.90
35531;DHT22;21637;53.352;-6.356;2023-06-04T14:15:11;19.70;99.90
35531;DHT22;21637;53.352;-6.356;2023-06-04T14:17:40;19.60;99.90
35531;DHT22;21637;53.352;-6.356;2023-06-04T14:20:06;19.70;99.90
35531;DHT22;21637;53.352;-6.356;2023-06-04T14:22:39;19.90;99.90
35531;DHT22;21637;53.352;-6.356;2023-06-04T14:25:06;19.80;99.90
35531;DHT22;21637;53.352;-6.356;2023-06-04T14:27:33;19.90;99.90
35531;DHT22;21637;53.352;-6.356;2023-06-04T14:29:59;19.80;99.90
35531;DHT22;21637;53.352;-6.356;2023-06-04T14:32:25;20.00;99.90
35531;DHT22;21637;53.352;-6.356;2023-06-04T14:34:51;20.00;99.90
35531;DHT22;21637;53.352;-6.356;2023-06-04T14:37:17;20.10;99.90
35531;DHT22;21637;53.352;-6.356;2023-06-04T14:39:42;20.00;99.90
35531;DHT22;21637;53.352;-6.356;2023-06-04T14:42:08;20.10;99.90
35531;DHT22;21637;53.352;-6.356;2023-06-04T14:44:34;20.30;99.90
35531;DHT22;21637;53.352;-6.356;2023-06-04T14:46:59;20.10;99.90
35531;DHT22;21637;53.352;-6.356;2023-06-04T14:49:25;20.00;99.90
35531;DHT22;21637;53.352;-6.356;2023-06-04T14:51:51;20.00;99.90
35531;DHT22;21637;53.352;-6.356;2023-06-04T14:54:17;19.90;99.90
35531;DHT22;21637;53.352;-6.356;2023-06-04T14:56:43;20.00;99.90
35531;DHT22;21637;53.352;-6.356;2023-06-04T14:59:10;20.30;99.90
35531;DHT22;21637;53.352;-6.356;2023-06-04T15:01:38;20.30;99.90
35531;DHT22;21637;53.352;-6.356;2023-06-04T15:04:05;20.50;99.90
35531;DHT22;21637;53.352;-6.356;2023-06-04T15:06:31;20.90;99.90
35531;DHT22;21637;53.352;-6.356;2023-06-04T15:08:57;21.30;99.90
35531;DHT22;21637;53.352;-6.356;2023-06-04T15:11:23;21.00;99.90
35531;DHT22;21637;53.352;-6.356;2023-06-04T15:13:49;20.70;99.90
35531;DHT22;21637;53.352;-6.356;2023-06-04T15:16:15;20.70;99.90
35531;DHT22;21637;53.352;-6.356;2023-06-04T15:18:41;21.00;99.90
35531;DHT22;21637;53.352;-6.356;2023-06-04T15:21:07;21.10;99.90